Bville, Texas
Current Conditions -  °F | °C
As of 6:53 AM on Sunday 21 Dec 2014 (Local Time) from KBRO Reporting Station
Overcast Overcast  
Wind Chill: 59°   Ceiling: 4400
Heat Index: 59°   Visibility: 8mi
Dew Point: 56°   Wind: 8mph
Humidity: 90%   Direction: 330°NNW
Pressure: 30.06"   Gusts: NA
Location:  26.0002°N, 97.5729°W
Report Text: KBRO 211253Z 33007KT 8SM FEW019 OVC044 15/13 A3006 RMK AO2 SLP177 T01500133
Loading
Personal Weather Stations






























Interactive Weather Map New forecast layout! Learn more

10-Day Weather Forecast

Advertisements
Track Severe Weather on mobile